createdAt,value
2023-01-06T00:01:02.562Z,2.87
2023-01-06T00:03:35.594Z,2.87
2023-01-06T00:06:09.434Z,2.83
2023-01-06T00:08:42.351Z,2.60
2023-01-06T00:11:16.785Z,3.10
2023-01-06T00:13:49.721Z,3.00
2023-01-06T00:16:22.956Z,3.07
2023-01-06T00:18:56.218Z,3.00
2023-01-06T00:21:32.002Z,2.70
2023-01-06T00:24:07.508Z,2.93
2023-01-06T00:26:41.747Z,2.90
2023-01-06T00:29:14.619Z,2.77
2023-01-06T00:31:47.333Z,3.00
2023-01-06T00:34:20.118Z,3.60
2023-01-06T00:36:53.635Z,3.40
2023-01-06T00:39:26.487Z,2.93
2023-01-06T00:42:06.792Z,2.80
2023-01-06T00:44:40.325Z,2.80
2023-01-06T00:47:14.154Z,3.17
2023-01-06T00:49:46.932Z,2.60
2023-01-06T00:52:19.817Z,2.73
2023-01-06T00:54:52.996Z,2.47
2023-01-06T00:57:27.377Z,2.23
2023-01-06T01:00:00.148Z,2.27
2023-01-06T01:02:34.334Z,2.23
2023-01-06T01:05:07.385Z,2.43
2023-01-06T01:07:41.022Z,2.20
2023-01-06T01:10:13.743Z,2.57
2023-01-06T01:12:47.911Z,2.60
2023-01-06T01:15:20.969Z,2.60
2023-01-06T01:17:53.869Z,2.50
2023-01-06T01:20:26.720Z,2.53
2023-01-06T01:22:59.471Z,2.10
2023-01-06T01:25:32.475Z,2.67
2023-01-06T01:28:07.120Z,2.60
2023-01-06T01:30:42.764Z,2.47
2023-01-06T01:33:15.685Z,2.80
2023-01-06T01:35:50.420Z,2.70
2023-01-06T01:38:23.345Z,2.53
2023-01-06T01:40:56.214Z,2.27
2023-01-06T01:46:32.544Z,2.57
2023-01-06T01:49:08.074Z,2.23
2023-01-06T01:51:42.165Z,2.70
2023-01-06T01:54:15.729Z,2.37
2023-01-06T01:56:52.895Z,2.67
2023-01-06T01:59:27.232Z,2.80
2023-01-06T02:02:01.797Z,2.70
2023-01-06T02:04:35.761Z,2.30
2023-01-06T02:07:11.025Z,2.33
2023-01-06T02:09:50.567Z,2.20
2023-01-06T02:12:23.345Z,2.40
2023-01-06T02:14:56.110Z,2.60
2023-01-06T02:17:42.455Z,2.20
2023-01-06T02:20:33.087Z,2.00
2023-01-06T02:23:18.839Z,2.10
2023-01-06T02:26:03.213Z,2.50
2023-01-06T02:28:50.480Z,1.90
2023-01-06T02:31:33.851Z,2.33
2023-01-06T02:34:10.989Z,2.40
2023-01-06T02:36:45.715Z,2.53
2023-01-06T02:39:27.129Z,2.50
2023-01-06T02:42:03.435Z,2.43
2023-01-06T02:44:43.327Z,2.30
2023-01-06T02:47:20.572Z,2.10
2023-01-06T02:49:58.609Z,2.60
2023-01-06T02:52:34.591Z,2.33
2023-01-06T02:55:09.769Z,2.63
2023-01-06T02:57:43.412Z,2.37
2023-01-06T03:00:20.609Z,2.33
2023-01-06T03:02:58.045Z,1.87
2023-01-06T03:05:33.499Z,2.57
2023-01-06T03:08:08.051Z,2.37
2023-01-06T03:10:42.477Z,1.90
2023-01-06T03:13:17.160Z,2.10
2023-01-06T03:15:50.134Z,1.83
2023-01-06T03:18:24.315Z,2.13
2023-01-06T03:20:57.660Z,1.77
2023-01-06T03:23:30.417Z,1.90
2023-01-06T03:26:03.211Z,2.47
2023-01-06T03:28:35.929Z,1.93
2023-01-06T03:31:12.699Z,2.20
2023-01-06T03:33:52.591Z,2.13
2023-01-06T03:36:30.062Z,1.90
2023-01-06T03:39:11.788Z,2.80
2023-01-06T03:42:04.496Z,2.10
2023-01-06T03:44:44.726Z,1.90
2023-01-06T03:47:22.790Z,2.13
2023-01-06T03:49:58.392Z,2.13
2023-01-06T03:52:32.240Z,2.10
2023-01-06T03:55:06.689Z,1.90
2023-01-06T03:57:40.997Z,1.90
2023-01-06T04:00:15.734Z,2.13
2023-01-06T04:02:48.910Z,1.73
2023-01-06T04:05:24.445Z,2.00
2023-01-06T04:07:57.261Z,1.97
2023-01-06T04:10:29.957Z,2.13
2023-01-06T04:13:02.039Z,1.70
2023-01-06T04:15:34.872Z,1.87
2023-01-06T04:18:08.004Z,1.87
2023-01-06T04:20:42.020Z,2.00
2023-01-06T04:23:14.784Z,1.93
2023-01-06T04:25:47.619Z,1.97
2023-01-06T04:28:20.394Z,1.93
2023-01-06T04:30:53.064Z,2.07
2023-01-06T04:33:27.094Z,2.40
2023-01-06T04:36:01.217Z,1.77
2023-01-06T04:38:33.999Z,2.17
2023-01-06T04:41:06.764Z,2.43
2023-01-06T04:43:39.649Z,2.30
2023-01-06T04:46:12.913Z,2.37
2023-01-06T04:48:45.697Z,2.03
2023-01-06T04:51:19.770Z,1.97
2023-01-06T04:53:52.418Z,2.13
2023-01-06T04:56:26.795Z,2.30
2023-01-06T04:58:59.739Z,2.40
2023-01-06T05:01:34.375Z,2.13
2023-01-06T05:04:07.427Z,2.40
2023-01-06T05:06:41.592Z,2.20
2023-01-06T05:09:14.378Z,2.20
2023-01-06T05:11:49.793Z,2.17
2023-01-06T05:14:22.639Z,2.10
2023-01-06T05:16:55.440Z,2.00
2023-01-06T05:19:28.177Z,2.03
2023-01-06T05:22:02.177Z,1.93
2023-01-06T05:24:34.917Z,2.77
2023-01-06T05:27:07.707Z,2.10
2023-01-06T05:29:40.749Z,2.37
2023-01-06T05:32:13.436Z,2.50
2023-01-06T05:34:46.140Z,2.00
2023-01-06T05:37:20.302Z,1.97
2023-01-06T05:39:53.122Z,2.47
2023-01-06T05:42:25.809Z,2.13
2023-01-06T05:44:58.477Z,1.97
2023-01-06T05:47:31.306Z,2.37
2023-01-06T05:50:04.353Z,2.10
2023-01-06T05:52:38.463Z,2.83
2023-01-06T05:55:11.470Z,2.80
2023-01-06T05:57:44.311Z,2.63
2023-01-06T06:00:17.412Z,2.60
2023-01-06T06:02:50.162Z,2.60
2023-01-06T06:05:22.810Z,2.77
2023-01-06T06:07:57.333Z,2.93
2023-01-06T06:10:30.138Z,2.73
2023-01-06T06:13:02.753Z,2.90
2023-01-06T06:15:35.565Z,2.40
2023-01-06T06:18:08.395Z,2.90
2023-01-06T06:20:41.171Z,2.63
2023-01-06T06:23:15.281Z,2.87
2023-01-06T06:25:50.847Z,2.93
2023-01-06T06:28:23.683Z,3.27
2023-01-06T06:30:56.663Z,2.60
2023-01-06T06:33:31.894Z,2.70
2023-01-06T06:36:05.797Z,3.20
2023-01-06T06:38:39.771Z,2.93
2023-01-06T06:41:12.917Z,2.73
2023-01-06T06:43:48.898Z,3.30
2023-01-06T06:46:21.967Z,3.10
2023-01-06T06:48:54.674Z,3.10
2023-01-06T06:51:27.633Z,3.43
2023-01-06T06:54:01.737Z,2.63
2023-01-06T06:56:34.566Z,2.80
2023-01-06T06:59:07.273Z,3.40
2023-01-06T07:01:40.163Z,3.67
2023-01-06T07:04:12.880Z,3.13
2023-01-06T07:06:45.630Z,3.27
2023-01-06T07:09:19.743Z,3.33
2023-01-06T07:11:52.691Z,3.10
2023-01-06T07:14:25.464Z,3.33
2023-01-06T07:17:00.742Z,3.80
2023-01-06T07:19:33.484Z,3.90
2023-01-06T07:22:06.284Z,3.63
2023-01-06T07:24:40.323Z,3.90
2023-01-06T07:27:12.865Z,4.07
2023-01-06T07:29:45.667Z,3.77
2023-01-06T07:32:18.431Z,3.90
2023-01-06T07:34:51.220Z,4.53
2023-01-06T07:37:23.976Z,4.10
2023-01-06T07:39:58.094Z,4.43
2023-01-06T07:42:30.950Z,4.93
2023-01-06T07:45:03.576Z,4.70
2023-01-06T07:47:36.323Z,5.20
2023-01-06T07:50:09.077Z,5.33
2023-01-06T07:52:41.799Z,5.70
2023-01-06T07:55:15.901Z,5.10
2023-01-06T07:57:48.564Z,6.10
2023-01-06T08:00:21.584Z,5.27
2023-01-06T08:02:54.439Z,5.47
2023-01-06T08:05:27.144Z,6.33
2023-01-06T08:08:00.048Z,5.90
2023-01-06T08:10:35.039Z,6.17
2023-01-06T08:13:08.178Z,6.40
2023-01-06T08:15:41.129Z,6.57
2023-01-06T08:18:13.877Z,6.37
2023-01-06T08:20:46.617Z,6.10
2023-01-06T08:23:19.369Z,6.33
2023-01-06T08:25:53.486Z,7.47
2023-01-06T08:28:26.157Z,6.63
2023-01-06T08:30:59.108Z,7.50
2023-01-06T08:33:31.916Z,7.63
2023-01-06T08:36:06.066Z,7.83
2023-01-06T08:38:38.973Z,8.23
2023-01-06T08:41:13.210Z,7.70
2023-01-06T08:43:47.057Z,7.90
2023-01-06T08:46:20.439Z,8.93
2023-01-06T08:48:53.620Z,8.67
2023-01-06T08:51:28.474Z,8.90
2023-01-06T08:54:01.454Z,8.07
2023-01-06T08:56:35.703Z,7.97
2023-01-06T08:59:08.455Z,8.60
2023-01-06T09:01:41.405Z,8.30
2023-01-06T09:04:14.437Z,8.53
2023-01-06T09:06:48.360Z,9.27
2023-01-06T09:09:24.545Z,10.20
2023-01-06T09:11:59.188Z,8.60
2023-01-06T09:14:33.543Z,9.23
2023-01-06T09:17:06.893Z,10.10
2023-01-06T09:19:39.859Z,9.17
2023-01-06T09:22:12.640Z,10.23
2023-01-06T09:24:45.551Z,9.10
2023-01-06T09:27:20.709Z,8.93
2023-01-06T09:29:54.392Z,10.63
2023-01-06T09:32:27.167Z,10.10
2023-01-06T09:35:00.073Z,9.70
2023-01-06T09:37:32.891Z,9.30
2023-01-06T09:40:09.187Z,9.83
2023-01-06T09:42:47.852Z,9.37
2023-01-06T09:45:23.789Z,10.23
2023-01-06T09:47:58.948Z,10.27
2023-01-06T09:50:33.959Z,15.10
2023-01-06T09:53:11.292Z,12.40
2023-01-06T09:55:45.408Z,12.03
2023-01-06T09:58:22.105Z,12.53
2023-01-06T10:00:55.938Z,11.80
2023-01-06T10:03:28.995Z,10.37
2023-01-06T10:06:09.954Z,10.53
2023-01-06T10:08:51.371Z,10.50
2023-01-06T10:11:28.126Z,10.43
2023-01-06T10:14:10.725Z,10.90
2023-01-06T10:16:50.619Z,11.00
2023-01-06T10:19:28.983Z,11.07
2023-01-06T10:22:05.049Z,10.80
2023-01-06T10:24:56.101Z,10.63
2023-01-06T10:27:32.940Z,10.40
2023-01-06T10:30:16.519Z,8.93
2023-01-06T10:32:50.826Z,9.07
2023-01-06T10:35:25.462Z,10.53
2023-01-06T10:37:59.180Z,11.27
2023-01-06T10:40:33.120Z,9.80
2023-01-06T10:43:08.098Z,9.57
2023-01-06T10:45:44.240Z,10.43
2023-01-06T10:48:18.825Z,10.37
2023-01-06T10:50:55.183Z,10.47
2023-01-06T10:53:30.298Z,9.23
2023-01-06T10:56:04.362Z,10.13
2023-01-06T10:58:42.197Z,9.53
2023-01-06T11:01:33.204Z,9.90
2023-01-06T11:04:13.226Z,9.43
2023-01-06T11:06:47.773Z,9.53
2023-01-06T11:09:30.019Z,11.00
2023-01-06T11:12:04.942Z,12.47
2023-01-06T11:14:40.219Z,10.77
2023-01-06T11:17:18.201Z,9.87
2023-01-06T11:20:06.022Z,10.43
2023-01-06T11:22:42.067Z,9.63
2023-01-06T11:25:32.976Z,10.47
2023-01-06T11:28:19.504Z,10.43
2023-01-06T11:30:53.941Z,9.23
2023-01-06T11:33:29.082Z,9.90
2023-01-06T11:36:09.232Z,10.10
2023-01-06T11:38:43.663Z,11.40
2023-01-06T11:41:22.153Z,10.43
2023-01-06T11:43:57.858Z,14.37
2023-01-06T11:46:33.351Z,16.07
2023-01-06T11:49:15.350Z,20.23
2023-01-06T11:51:49.800Z,11.17
2023-01-06T11:54:24.166Z,10.33
2023-01-06T11:57:13.379Z,11.40
2023-01-06T11:59:57.650Z,16.00
2023-01-06T12:02:36.467Z,10.80
2023-01-06T12:05:17.967Z,12.00
2023-01-06T12:07:52.318Z,12.77
2023-01-06T12:10:26.904Z,11.43
2023-01-06T12:12:59.797Z,11.27
2023-01-06T12:15:35.548Z,9.17
2023-01-06T12:18:12.959Z,9.93
2023-01-06T12:20:49.269Z,9.37
2023-01-06T12:23:31.096Z,8.97
2023-01-06T12:26:17.218Z,7.53
2023-01-06T12:28:52.508Z,8.10
2023-01-06T12:31:30.975Z,7.63
2023-01-06T12:34:06.727Z,6.77
2023-01-06T12:36:43.876Z,7.17
2023-01-06T12:39:20.185Z,7.00
2023-01-06T12:41:55.124Z,7.03
2023-01-06T12:44:35.899Z,6.00
2023-01-06T12:47:13.579Z,5.93
2023-01-06T12:49:52.239Z,5.60
2023-01-06T12:52:30.073Z,5.60
2023-01-06T12:55:03.977Z,10.33
2023-01-06T12:57:47.691Z,11.13
2023-01-06T13:00:32.683Z,6.43
2023-01-06T13:03:13.069Z,6.67
2023-01-06T13:06:01.236Z,6.40
2023-01-06T13:08:43.947Z,6.27
2023-01-06T13:11:22.296Z,6.03
2023-01-06T13:13:59.781Z,6.23
2023-01-06T13:16:37.940Z,6.80
2023-01-06T13:19:17.188Z,7.00
2023-01-06T13:21:55.420Z,7.27
2023-01-06T13:24:36.587Z,6.70
2023-01-06T13:27:24.588Z,5.83
2023-01-06T13:30:09.497Z,5.67
2023-01-06T13:32:48.777Z,8.17
2023-01-06T13:35:43.583Z,5.10
2023-01-06T13:38:26.854Z,5.63
2023-01-06T13:41:01.960Z,6.10
2023-01-06T13:43:35.216Z,4.40
2023-01-06T13:46:11.104Z,6.57
2023-01-06T13:48:53.291Z,3.70
2023-01-06T13:51:51.642Z,3.57
2023-01-06T13:54:44.793Z,3.40
2023-01-06T13:57:32.279Z,3.40
2023-01-06T14:00:15.960Z,2.57
2023-01-06T14:03:22.345Z,2.10
2023-01-06T14:05:59.574Z,2.07
2023-01-06T14:08:34.891Z,1.90
2023-01-06T14:11:28.258Z,2.70
2023-01-06T14:14:04.107Z,2.00
2023-01-06T14:16:41.321Z,2.20
2023-01-06T14:19:24.309Z,2.10
2023-01-06T14:22:16.565Z,1.73
2023-01-06T14:24:52.652Z,1.73
2023-01-06T14:27:40.623Z,2.30
2023-01-06T14:30:22.928Z,1.90
2023-01-06T14:33:04.147Z,2.07
2023-01-06T14:35:42.150Z,2.10
2023-01-06T14:38:19.800Z,1.23
2023-01-06T14:40:55.220Z,2.03
2023-01-06T14:43:33.429Z,2.40
2023-01-06T14:46:15.718Z,2.53
2023-01-06T14:48:52.159Z,2.27
2023-01-06T14:51:25.336Z,2.30
2023-01-06T14:54:00.649Z,1.90
2023-01-06T14:56:34.029Z,2.13
2023-01-06T14:59:11.101Z,2.43
2023-01-06T15:01:46.024Z,2.30
2023-01-06T15:04:26.372Z,2.17
2023-01-06T15:07:17.885Z,2.63
2023-01-06T15:09:51.089Z,2.00
2023-01-06T15:12:26.646Z,2.00
2023-01-06T15:15:14.333Z,1.80
2023-01-06T15:17:48.706Z,2.07
2023-01-06T15:20:24.754Z,2.40
2023-01-06T15:22:57.826Z,2.23
2023-01-06T15:25:30.948Z,2.30
2023-01-06T15:28:03.847Z,2.70
2023-01-06T15:30:42.784Z,2.40
2023-01-06T15:33:17.151Z,2.30
2023-01-06T15:35:51.223Z,2.60
2023-01-06T15:38:26.206Z,2.43
2023-01-06T15:40:59.200Z,2.70
2023-01-06T15:43:42.340Z,2.10
2023-01-06T15:46:15.502Z,2.40
2023-01-06T15:48:50.229Z,2.70
2023-01-06T15:51:28.069Z,2.60
2023-01-06T15:54:03.563Z,2.60
2023-01-06T15:56:36.601Z,2.70
2023-01-06T15:59:13.815Z,2.53
2023-01-06T16:01:51.082Z,2.60
2023-01-06T16:04:25.935Z,2.93
2023-01-06T16:07:21.493Z,2.70
2023-01-06T16:09:55.595Z,3.00
2023-01-06T16:12:28.482Z,2.57
2023-01-06T16:15:21.377Z,2.93
2023-01-06T16:17:54.415Z,2.50
2023-01-06T16:20:28.378Z,2.67
2023-01-06T16:23:01.158Z,3.20
2023-01-06T16:25:36.606Z,2.80
2023-01-06T16:28:16.594Z,3.00
2023-01-06T16:31:04.575Z,3.00
2023-01-06T16:33:40.432Z,3.70
2023-01-06T16:36:14.175Z,3.33
2023-01-06T16:38:47.072Z,3.30
2023-01-06T16:41:21.316Z,3.30
2023-01-06T16:43:54.224Z,3.57
2023-01-06T16:46:28.298Z,3.43
2023-01-06T16:49:05.621Z,3.70
2023-01-06T16:51:38.803Z,3.83
2023-01-06T16:54:13.924Z,3.50
2023-01-06T16:56:52.376Z,3.20
2023-01-06T16:59:26.234Z,5.07
2023-01-06T17:01:59.529Z,2.93
2023-01-06T17:04:38.620Z,3.77
2023-01-06T17:07:13.041Z,3.80
2023-01-06T17:09:50.675Z,3.47
2023-01-06T17:12:38.854Z,3.53
2023-01-06T17:15:19.426Z,3.30
2023-01-06T17:17:52.731Z,3.10
2023-01-06T17:20:28.194Z,3.20
2023-01-06T17:23:01.510Z,3.47
2023-01-06T17:25:35.442Z,3.53
2023-01-06T17:28:15.779Z,3.67
2023-01-06T17:30:49.721Z,3.67
2023-01-06T17:33:22.803Z,3.63
2023-01-06T17:35:57.323Z,4.00
2023-01-06T17:38:31.646Z,4.70
2023-01-06T17:41:06.281Z,4.63
2023-01-06T17:43:46.125Z,4.50
2023-01-06T17:46:21.378Z,5.23
2023-01-06T17:48:59.069Z,5.23
2023-01-06T17:51:32.076Z,5.30
2023-01-06T17:54:33.147Z,5.90
2023-01-06T17:57:12.849Z,6.70
2023-01-06T17:59:47.859Z,6.83
2023-01-06T18:02:35.783Z,5.70
2023-01-06T18:05:26.524Z,7.00
2023-01-06T18:08:03.404Z,5.80
2023-01-06T18:10:37.015Z,6.80
2023-01-06T18:13:13.131Z,5.70
2023-01-06T18:15:48.999Z,6.00
2023-01-06T18:18:23.467Z,5.63
2023-01-06T18:20:57.539Z,5.77
2023-01-06T18:23:30.444Z,6.20
2023-01-06T18:26:07.760Z,6.17
2023-01-06T18:28:40.477Z,5.93
2023-01-06T18:31:15.378Z,6.20
2023-01-06T18:33:48.419Z,5.67
2023-01-06T18:36:21.537Z,5.03
2023-01-06T18:38:55.238Z,4.83
2023-01-06T18:41:28.301Z,4.63
2023-01-06T18:44:01.377Z,4.57
2023-01-06T18:46:35.829Z,5.00
2023-01-06T18:49:10.804Z,5.03
2023-01-06T18:51:44.050Z,5.10
2023-01-06T18:54:19.344Z,4.37
2023-01-06T18:56:52.398Z,4.63
2023-01-06T18:59:28.661Z,4.70
2023-01-06T19:02:02.966Z,5.67
2023-01-06T19:04:37.988Z,5.00
2023-01-06T19:07:13.225Z,5.87
2023-01-06T19:09:47.338Z,6.70
2023-01-06T19:12:24.864Z,5.87
2023-01-06T19:15:02.237Z,4.83
2023-01-06T19:17:40.467Z,5.97
2023-01-06T19:20:17.178Z,5.50
2023-01-06T19:22:50.939Z,5.50
2023-01-06T19:25:28.989Z,5.03
2023-01-06T19:28:03.904Z,5.00
2023-01-06T19:30:41.788Z,5.23
2023-01-06T19:33:26.428Z,5.87
2023-01-06T19:36:05.407Z,5.23
2023-01-06T19:38:39.754Z,5.47
2023-01-06T19:41:16.858Z,5.50
2023-01-06T19:43:49.759Z,5.53
2023-01-06T19:46:23.726Z,6.97
2023-01-06T19:48:59.501Z,6.47
2023-01-06T19:51:35.952Z,6.50
2023-01-06T19:54:23.455Z,6.83
2023-01-06T19:56:56.735Z,6.83
2023-01-06T19:59:32.480Z,7.03
2023-01-06T20:02:21.664Z,7.20
2023-01-06T20:04:56.309Z,7.20
2023-01-06T20:07:29.114Z,6.70
2023-01-06T20:10:01.863Z,6.60
2023-01-06T20:12:34.647Z,6.30
2023-01-06T20:15:08.311Z,6.60
2023-01-06T20:17:41.495Z,7.43
2023-01-06T20:20:15.817Z,6.77
2023-01-06T20:22:49.029Z,6.57
2023-01-06T20:25:22.171Z,6.60
2023-01-06T20:27:55.174Z,6.87
2023-01-06T20:30:27.967Z,7.40
2023-01-06T20:33:00.876Z,7.30
2023-01-06T20:35:35.055Z,7.07
2023-01-06T20:38:08.178Z,6.97
2023-01-06T20:40:41.188Z,6.70
2023-01-06T20:43:14.261Z,6.83
2023-01-06T20:45:47.471Z,7.33
2023-01-06T20:48:22.788Z,6.93
2023-01-06T20:50:57.315Z,6.57
2023-01-06T20:53:30.253Z,6.73
2023-01-06T20:56:03.748Z,6.57
2023-01-06T20:58:36.987Z,6.47
2023-01-06T21:01:09.964Z,6.20
2023-01-06T21:03:49.173Z,6.80
2023-01-06T21:06:23.412Z,7.17
2023-01-06T21:08:56.208Z,7.40
2023-01-06T21:11:38.082Z,7.80
2023-01-06T21:14:10.872Z,7.90
2023-01-06T21:16:43.753Z,8.03
2023-01-06T21:19:19.601Z,7.43
2023-01-06T21:21:53.652Z,7.57
2023-01-06T21:24:26.678Z,8.13
2023-01-06T21:26:59.453Z,7.50
2023-01-06T21:29:32.285Z,8.37
2023-01-06T21:32:05.212Z,8.77
2023-01-06T21:34:37.967Z,9.00
2023-01-06T21:37:12.196Z,8.50
2023-01-06T21:39:47.761Z,9.30
2023-01-06T21:42:38.027Z,8.37
2023-01-06T21:45:11.210Z,9.33
2023-01-06T21:47:44.047Z,9.37
2023-01-06T21:50:16.985Z,9.33
2023-01-06T21:52:51.679Z,8.30
2023-01-06T21:55:24.595Z,7.73
2023-01-06T21:57:57.496Z,8.20
2023-01-06T22:00:30.464Z,8.83
2023-01-06T22:03:03.305Z,9.97
2023-01-06T22:05:36.154Z,10.30
2023-01-06T22:08:10.466Z,10.73
2023-01-06T22:10:43.865Z,10.63
2023-01-06T22:13:20.243Z,10.57
2023-01-06T22:15:52.889Z,10.00
2023-01-06T22:18:25.802Z,10.97
2023-01-06T22:20:59.085Z,10.40
2023-01-06T22:23:33.732Z,10.73
2023-01-06T22:26:07.012Z,10.27
2023-01-06T22:28:39.897Z,9.77
2023-01-06T22:31:12.972Z,10.27
2023-01-06T22:33:46.036Z,12.70
2023-01-06T22:36:19.087Z,12.07
2023-01-06T22:38:53.960Z,13.53
2023-01-06T22:41:26.872Z,12.90
2023-01-06T22:43:59.679Z,15.43
2023-01-06T22:46:32.831Z,14.07
2023-01-06T22:49:06.063Z,14.70
2023-01-06T22:51:38.882Z,14.90
2023-01-06T22:54:16.365Z,11.90
2023-01-06T22:56:48.995Z,10.67
2023-01-06T22:59:22.105Z,10.00
2023-01-06T23:01:55.211Z,10.73
2023-01-06T23:04:28.095Z,10.27
2023-01-06T23:07:01.244Z,10.40
2023-01-06T23:09:35.810Z,10.40
2023-01-06T23:12:08.775Z,10.57
2023-01-06T23:14:41.526Z,10.17
2023-01-06T23:17:14.262Z,10.97
2023-01-06T23:19:47.111Z,12.33
2023-01-06T23:22:19.979Z,12.63
2023-01-06T23:24:56.620Z,11.67
2023-01-06T23:27:31.222Z,14.17
2023-01-06T23:30:04.507Z,12.07
2023-01-06T23:32:37.496Z,10.90
2023-01-06T23:35:10.555Z,9.73
2023-01-06T23:37:43.691Z,10.13
2023-01-06T23:40:18.208Z,10.50
2023-01-06T23:42:51.959Z,9.77
2023-01-06T23:45:24.855Z,10.50
2023-01-06T23:47:58.259Z,10.83
2023-01-06T23:50:31.153Z,11.20
2023-01-06T23:53:03.949Z,10.80
2023-01-06T23:55:38.199Z,10.90
2023-01-06T23:58:10.915Z,10.13
